METAR Data
IDs: Format: Raw Decoded Include TAF

Data at: 1345 UTC 07 Jul 2020

KCHS 071321Z 16003KT 10SM -RA FEW010 SCT025 BKN075 24/23 A3003 RMK AO2 P0001 T02440228 $
KCHS 071302Z 19006KT 4SM -RA BR FEW010 BKN025 BKN050 24/23 A3003 RMK AO2 P0001 T02390233 $
KCHS 071256Z 15004KT 3SM RA BR SCT025 BKN030 OVC070 24/23 A3003 RMK AO2 RAB30 SLP169 P0003 T02390233 $
KCHS 071156Z 10003KT 10SM SCT045 BKN090 OVC200 24/23 A3002 RMK AO2 RAE48 SLP165 P0002 60033 70113 T02390228 10244 20233 51005 $
KCHS 071056Z 00000KT 5SM -RA BR FEW006 SCT045 OVC085 23/22 A3002 RMK AO2 LTG DSNT E SLP163 CB DSNT E P0008 T02330222 $
KCHS 070956Z 13003KT 7SM RA FEW006 BKN045 OVC090 24/23 A3001 RMK AO2 LTG DSNT SE SLP162 CB DSNT SE P0008 T02390233 $
KCHS 070944Z 00000KT 5SM RA BR FEW006 BKN050 OVC090 24/23 A3001 RMK AO2 P0004 T02390233 $
KCHS 070919Z 00000KT 6SM -RA BR BKN006 BKN060 OVC070 24/23 A3001 RMK AO2 LTG DSNT S P0002 T02390233
KCHS 070856Z 00000KT 4SM -RA BR SCT003 BKN010 OVC035 24/23 A3000 RMK AO2 SLP159 P0015 60015 T02390233 55009
KCHS 070849Z 23004KT 2 1/2SM R15/5500VP6000FT +RA BR FEW003 BKN021 OVC039 24/23 A3001 RMK AO2 VIS 1 3/4V4 P0012 T02390233
KCHS 070845Z 00000KT 2SM R15/5500VP6000FT +RA BR SCT009 BKN039 OVC070 24/23 A3001 RMK AO2 P0010 T02390233
KCHS 070756Z 00000KT 8SM -RA FEW005 FEW020 OVC140 24/23 A3000 RMK AO2 RAB10E23B44 SLP159 P0000 T02390233
KCHS 070656Z 06004KT 10SM FEW003 FEW040 OVC150 24/23 A3002 RMK AO2 SLP164 T02390233
KCHS 070652Z 07004KT 10SM FEW003 FEW040 OVC150 24/23 A3002 RMK AO2
KCHS 070556Z 00000KT 10SM FEW040 FEW080 OVC150 24/24 A3003 RMK AO2 SLP169 60080 T02440239 10278 20233 56003
KCHS 070456Z 05003KT 10SM BKN150 24/23 A3004 RMK RAE10 SLP170 P0000 T02440233 403110233
KCHS 070356Z 07003KT 10SM -RA FEW040 FEW070 OVC120 24/23 A3004 RMK AO2 TSE09 SLP170 P0002 T02440233
KCHS 070310Z 11003KT 8SM -RA FEW030 SCT050 OVC120 24/23 A3004 RMK AO2 TSE09 P0001 T02390228
KCHS 070256Z 00000KT 8SM -TSRA FEW015CB SCT040 OVC100 23/22 A3004 RMK AO2 SLP173 OCNL LTGIC E TS E MOV N P0013 60078 T02330222 50004
KCHS 070156Z 21008G17KT 3SM R15/4000VP6000FT +TSRA BR SCT015CB BKN035 OVC050 23/22 A3006 RMK AO2 PK WND 20031/0100 LTG DSNT E RAB00 TSB00E15B36 SLP180 OCNL LTGIC N-E TS N-E MOV N P0065 T02330222
KCHS 070136Z 00000KT 6SM +TSRA BR SCT020CB BKN040 BKN050 24/23 A3005 RMK AO2 PK WND 20031/0100 LTG DSNT E RAB00 TSB00E15B36 OCNL LTGIC SE-SW TS SE-SW MOV N P0045 T02390228
KCHS 070120Z 00000KT 6SM +RA BR SCT015 BKN032 BKN150 24/22 A3004 RMK AO2 PK WND 20031/0100 LTG DSNT E RAB00 TSB00E15 TS MOV N CB DSNT E AND SW P0041 T02390222
KCHS 070105Z 18008G31KT 5SM R15/3000VP6000FT +TSRA BR SCT015CB SCT020 BKN040 23/22 A3005 RMK AO2 PK WND 20031/0100 LTG DSNT E AND SW RAB00 TSB00 OCNL LTGIC SW TS SW MOV N P0010 T02330217
KCHS 070056Z 20007KT 10SM FEW020 SCT030 BKN150 27/24 A3004 RMK AO2 LTG DSNT E RAB30E39 SLP172 CB DSNT E P0000 T02670239
KCHS 062356Z 17009KT 10SM FEW020 SCT040 BKN150 28/23 A3003 RMK AO2 SLP169 T02780228 10306 20278 55000
KCHS 062256Z 18010KT 10SM FEW020 SCT030 BKN150 28/23 A3003 RMK AO2 SLP169 T02830233
KCHS 062156Z 15008KT 10SM FEW025 SCT035 BKN150 28/23 A3002 RMK AO2 SLP166 T02830233
KCHS 062056Z 15012KT 10SM SCT030 BKN150 29/23 A3003 RMK AO2 SLP169 T02890228 56005
KCHS 061956Z 13012KT 10SM SCT030 BKN150 31/23 A3004 RMK SLP171 T03060233
KCHS 061856Z 14010KT 10SM SCT030 BKN150 30/24 A3003 RMK AO2 SLP169 T03000239
KCHS 061756Z 11009KT 10SM SCT027 BKN120 30/23 A3005 RMK AO2 SLP173 SCT V BKN T03000228 10311 20261 58007
KCHS 061656Z 16009KT 10SM FEW030 SCT120 BKN200 30/22 A3006 RMK AO2 LTG DSNT NE SLP180 CB DSNT NE T03000222
KCHS 061556Z 20010KT 10SM FEW030 SCT120 BKN200 31/23 A3007 RMK AO2 LTG DSNT NE SLP181 CB DSNT NE T03060228
KCHS 061530Z 19007KT 10SM SCT028 BKN120 BKN200 31/22 A3007 RMK AO2 LTG DSNT NE CB DSNT NE T03060217
KCHS 061501Z 20008KT 10SM BKN028 BKN120 29/23 A3007 RMK AO2 T02890233
KCHS 061456Z 19008KT 10SM SCT026 BKN120 BKN200 29/23 A3007 RMK AO2 SLP181 T02940233 51013
KCHS 061356Z 22004KT 10SM SCT020 BKN120 BKN250 28/23 A3006 RMK AO2 SLP177 T02830228
KCHS 061256Z 14004KT 10SM FEW020 FEW100 SCT250 27/23 A3004 RMK AO2 SLP172 T02720233
KCHS 061156Z 00000KT 10SM FEW020 FEW100 SCT250 27/23 A3003 RMK AO2 SLP168 T02670233 10267 20233 53016
KCHS 061056Z 00000KT 10SM FEW045 FEW120 SCT250 24/23 A3001 RMK AO2 SLP162 T02390228 $
KCHS 060956Z 00000KT 10SM FEW045 FEW200 24/23 A3000 RMK AO2 SLP157 CB DSNT E T02390228 $
KCHS 060856Z 00000KT 10SM FEW030 FEW070 SCT200 24/23 A2998 RMK AO2 SLP152 T02440228 55003 $
KCHS 060756Z 20004KT 10SM FEW050 SCT075 24/23 A2998 RMK AO2 SLP150 T02440228 $
KCHS 060656Z 07003KT 10SM FEW040 BKN070 25/23 A2998 RMK AO2 SLP152 T02500228 $
KCHS 060556Z 11004KT 10SM FEW050 SCT110 24/22 A2999 RMK AO2 SLP156 60000 T02440222 10283 20244 58001 $
KCHS 060456Z 15007KT 10SM FEW025 FEW050 SCT075 25/23 A3001 RMK AO2 SLP161 T02500228 403170217 $
KCHS 060356Z 21008KT 10SM FEW030 FEW050 SCT150 24/22 A3000 RMK AO2 RAB00E21 SLP159 P0000 T02440222 $
KCHS 060256Z 19008KT 10SM SCT026 SCT036 26/23 A3000 RMK AO2 SLP156 T02610228 53007 $
KCHS 060156Z 15008KT 10SM FEW021 FEW030 27/22 A2999 RMK AO2 SLP153 T02670222 $